createdAt,value
2019-03-05T00:00:07.987Z,93.55
2019-03-05T00:01:07.977Z,93.27
2019-03-05T00:02:07.964Z,93.37
2019-03-05T00:03:07.954Z,93.55
2019-03-05T00:04:07.945Z,93.55
2019-03-05T00:05:07.937Z,93.27
2019-03-05T00:06:07.930Z,93.27
2019-03-05T00:07:07.923Z,93.46
2019-03-05T00:08:07.906Z,93.55
2019-03-05T00:09:07.895Z,93.37
2019-03-05T00:10:07.890Z,93.37
2019-03-05T00:11:07.881Z,93.08
2019-03-05T00:12:07.869Z,93.27
2019-03-05T00:13:07.859Z,93.37
2019-03-05T00:14:07.843Z,93.18
2019-03-05T00:15:07.834Z,93.46
2019-03-05T00:16:07.825Z,93.37
2019-03-05T00:17:07.813Z,93.27
2019-03-05T00:18:07.812Z,92.99
2019-03-05T00:19:07.798Z,93.27
2019-03-05T00:20:07.791Z,93.75
2019-03-05T00:21:07.782Z,92.89
2019-03-05T00:22:07.768Z,93.27
2019-03-05T00:23:08.411Z,93.08
2019-03-05T00:24:07.751Z,93.37
2019-03-05T00:25:07.744Z,93.46
2019-03-05T00:26:07.728Z,93.46
2019-03-05T00:27:07.717Z,93.18
2019-03-05T00:28:07.705Z,93.55
2019-03-05T00:29:07.696Z,92.99
2019-03-05T00:30:07.690Z,92.99
2019-03-05T00:31:07.680Z,93.55
2019-03-05T00:32:07.670Z,93.37
2019-03-05T00:33:07.661Z,93.27
2019-03-05T00:34:07.645Z,93.37
2019-03-05T00:35:07.636Z,92.89
2019-03-05T00:36:07.629Z,93.37
2019-03-05T00:37:07.619Z,93.18
2019-03-05T00:38:07.615Z,93.65
2019-03-05T00:39:07.612Z,93.18
2019-03-05T00:40:07.590Z,93.55
2019-03-05T00:41:07.579Z,93.37
2019-03-05T00:42:07.574Z,93.18
2019-03-05T00:43:07.563Z,93.27
2019-03-05T00:44:07.551Z,92.70
2019-03-05T00:45:07.541Z,93.08
2019-03-05T00:46:07.527Z,93.18
2019-03-05T00:47:07.517Z,93.18
2019-03-05T00:48:07.506Z,92.99
2019-03-05T00:49:07.498Z,92.99
2019-03-05T00:50:07.492Z,93.46
2019-03-05T00:51:07.481Z,93.18
2019-03-05T00:52:07.478Z,93.27
2019-03-05T00:53:07.464Z,93.27
2019-03-05T00:54:07.450Z,93.37
2019-03-05T00:55:07.440Z,93.65
2019-03-05T00:56:07.435Z,93.65
2019-03-05T00:57:07.425Z,92.70
2019-03-05T00:58:07.410Z,92.80
2019-03-05T00:59:07.399Z,93.37
2019-03-05T01:00:07.389Z,93.18
2019-03-05T01:01:07.377Z,92.61
2019-03-05T01:02:07.375Z,92.61
2019-03-05T01:03:07.362Z,93.18
2019-03-05T01:04:07.351Z,92.99
2019-03-05T01:05:07.344Z,93.37
2019-03-05T01:06:07.328Z,93.55
2019-03-05T01:07:07.315Z,92.41
2019-03-05T01:08:07.309Z,92.61
2019-03-05T01:09:07.299Z,92.80
2019-03-05T01:10:07.294Z,92.80
2019-03-05T01:11:07.283Z,92.89
2019-03-05T01:12:07.270Z,92.22
2019-03-05T01:13:07.278Z,92.70
2019-03-05T01:14:07.257Z,92.80
2019-03-05T01:15:07.244Z,93.18
2019-03-05T01:16:07.233Z,92.99
2019-03-05T01:17:07.221Z,92.99
2019-03-05T01:18:07.208Z,93.18
2019-03-05T01:19:07.202Z,92.80
2019-03-05T01:20:07.189Z,93.08
2019-03-05T01:21:07.179Z,92.89
2019-03-05T01:22:07.177Z,92.70
2019-03-05T01:23:07.168Z,92.80
2019-03-05T01:24:07.151Z,92.99
2019-03-05T01:25:07.144Z,92.70
2019-03-05T01:26:07.127Z,93.08
2019-03-05T01:27:07.117Z,93.08
2019-03-05T01:28:07.111Z,92.13
2019-03-05T01:29:07.102Z,92.32
2019-03-05T01:30:07.089Z,92.61
2019-03-05T01:31:07.079Z,92.61
2019-03-05T01:32:07.069Z,92.70
2019-03-05T01:33:07.060Z,92.13
2019-03-05T01:34:07.056Z,91.85
2019-03-05T01:35:07.047Z,91.66
2019-03-05T01:36:07.034Z,91.66
2019-03-05T01:37:07.025Z,91.75
2019-03-05T01:38:07.066Z,91.94
2019-03-05T01:39:07.000Z,91.94
2019-03-05T01:40:06.988Z,92.13
2019-03-05T01:41:06.978Z,92.13
2019-03-05T01:42:06.974Z,92.03
2019-03-05T01:43:06.962Z,92.03
2019-03-05T01:44:06.947Z,91.94
2019-03-05T01:45:06.938Z,91.85
2019-03-05T01:46:06.932Z,91.66
2019-03-05T01:47:06.923Z,91.85
2019-03-05T01:48:06.915Z,92.41
2019-03-05T01:49:06.985Z,91.66
2019-03-05T01:50:06.893Z,91.66
2019-03-05T01:51:06.881Z,91.75
2019-03-05T01:52:06.870Z,91.47
2019-03-05T01:53:06.862Z,91.28
2019-03-05T01:54:06.857Z,91.71
2019-03-05T01:55:06.846Z,92.37
2019-03-05T01:56:06.833Z,91.80
2019-03-05T01:57:06.824Z,92.08
2019-03-05T01:58:06.811Z,91.23
2019-03-05T01:59:06.799Z,91.99
2019-03-05T02:00:06.794Z,91.89
2019-03-05T02:01:06.787Z,91.89
2019-03-05T02:02:06.768Z,92.08
2019-03-05T02:03:06.759Z,91.89
2019-03-05T02:04:06.752Z,91.80
2019-03-05T02:05:06.741Z,91.99
2019-03-05T02:06:06.736Z,92.18
2019-03-05T02:07:06.724Z,91.99
2019-03-05T02:08:06.715Z,91.89
2019-03-05T02:09:06.705Z,91.99
2019-03-05T02:10:06.692Z,91.99
2019-03-05T02:11:06.680Z,92.46
2019-03-05T02:12:06.668Z,92.94
2019-03-05T02:13:06.656Z,92.27
2019-03-05T02:14:06.656Z,93.04
2019-03-05T02:15:06.643Z,93.13
2019-03-05T02:16:06.627Z,92.27
2019-03-05T02:17:06.615Z,92.66
2019-03-05T02:18:06.615Z,92.66
2019-03-05T02:19:06.602Z,93.04
2019-03-05T02:20:06.592Z,92.85
2019-03-05T02:21:06.583Z,92.75
2019-03-05T02:22:06.568Z,93.70
2019-03-05T02:23:06.561Z,93.32
2019-03-05T02:24:06.545Z,93.32
2019-03-05T02:25:06.536Z,93.13
2019-03-05T02:26:06.528Z,93.23
2019-03-05T02:27:06.518Z,93.23
2019-03-05T02:28:06.512Z,92.94
2019-03-05T02:29:06.500Z,92.90
2019-03-05T02:30:06.497Z,92.75
2019-03-05T02:31:06.475Z,93.46
2019-03-05T02:32:06.470Z,93.56
2019-03-05T02:33:06.466Z,93.75
2019-03-05T02:34:06.444Z,93.46
2019-03-05T02:35:06.439Z,93.27
2019-03-05T02:36:06.422Z,93.41
2019-03-05T02:37:06.411Z,94.03
2019-03-05T02:38:06.481Z,94.03
2019-03-05T02:39:06.395Z,93.79
2019-03-05T02:40:06.385Z,94.08
2019-03-05T02:41:06.375Z,94.27
2019-03-05T02:42:06.361Z,93.99
2019-03-05T02:43:06.347Z,93.23
2019-03-05T02:44:06.341Z,93.89
2019-03-05T02:45:06.334Z,94.03
2019-03-05T02:46:06.326Z,93.51
2019-03-05T02:47:06.317Z,93.41
2019-03-05T02:48:06.300Z,93.79
2019-03-05T02:49:06.308Z,93.89
2019-03-05T02:50:06.285Z,93.46
2019-03-05T02:51:06.272Z,93.89
2019-03-05T02:52:06.259Z,93.56
2019-03-05T02:53:06.251Z,93.46
2019-03-05T02:54:06.234Z,93.32
2019-03-05T02:55:06.228Z,93.70
2019-03-05T02:56:06.216Z,93.51
2019-03-05T02:57:06.203Z,93.70
2019-03-05T02:58:06.201Z,93.99
2019-03-05T02:59:06.189Z,93.51
2019-03-05T03:00:06.180Z,93.32
2019-03-05T03:01:06.176Z,93.60
2019-03-05T03:02:06.157Z,93.51
2019-03-05T03:03:06.152Z,93.51
2019-03-05T03:04:06.138Z,93.13
2019-03-05T03:05:06.136Z,93.13
2019-03-05T03:06:06.115Z,93.32
2019-03-05T03:07:06.104Z,93.51
2019-03-05T03:08:06.091Z,93.32
2019-03-05T03:09:06.081Z,93.70
2019-03-05T03:10:06.079Z,93.60
2019-03-05T03:11:06.065Z,92.94
2019-03-05T03:12:06.057Z,93.13
2019-03-05T03:13:06.046Z,92.94
2019-03-05T03:14:06.032Z,92.94
2019-03-05T03:15:06.021Z,93.04
2019-03-05T03:16:06.012Z,93.51
2019-03-05T03:17:06.003Z,93.79
2019-03-05T03:18:05.998Z,93.60
2019-03-05T03:19:05.983Z,93.23
2019-03-05T03:20:05.975Z,93.23
2019-03-05T03:21:05.964Z,93.13
2019-03-05T03:22:05.955Z,92.94
2019-03-05T03:23:05.945Z,93.51
2019-03-05T03:24:05.932Z,93.41
2019-03-05T03:25:05.923Z,93.32
2019-03-05T03:26:05.920Z,93.41
2019-03-05T03:27:06.008Z,93.23
2019-03-05T03:28:05.893Z,92.66
2019-03-05T03:29:05.880Z,93.23
2019-03-05T03:30:05.879Z,92.75
2019-03-05T03:31:05.888Z,93.23
2019-03-05T03:32:05.853Z,92.94
2019-03-05T03:33:05.846Z,93.13
2019-03-05T03:34:05.830Z,93.04
2019-03-05T03:35:05.836Z,93.23
2019-03-05T03:36:05.810Z,93.13
2019-03-05T03:37:05.805Z,93.51
2019-03-05T03:38:05.784Z,92.75
2019-03-05T03:39:05.778Z,92.94
2019-03-05T03:40:06.256Z,93.70
2019-03-05T03:41:05.764Z,93.23
2019-03-05T03:42:05.753Z,92.85
2019-03-05T03:43:05.740Z,93.46
2019-03-05T03:44:05.734Z,93.41
2019-03-05T03:45:05.720Z,93.51
2019-03-05T03:46:05.706Z,93.84
2019-03-05T03:47:05.710Z,93.51
2019-03-05T03:48:05.682Z,93.51
2019-03-05T03:49:05.671Z,93.41
2019-03-05T03:50:05.776Z,94.23
2019-03-05T03:51:05.760Z,94.03
2019-03-05T03:52:05.641Z,93.56
2019-03-05T03:53:05.630Z,94.13
2019-03-05T03:54:05.632Z,93.94
2019-03-05T03:55:05.614Z,93.94
2019-03-05T03:56:05.605Z,93.84
2019-03-05T03:57:05.599Z,94.13
2019-03-05T03:58:05.582Z,94.32
2019-03-05T03:59:05.571Z,93.75
2019-03-05T04:00:05.562Z,93.84
2019-03-05T04:01:07.193Z,94.23
2019-03-05T04:02:05.545Z,94.03
2019-03-05T04:03:05.533Z,94.32
2019-03-05T04:04:05.525Z,93.60
2019-03-05T04:05:05.511Z,94.08
2019-03-05T04:06:05.499Z,94.23
2019-03-05T04:07:05.486Z,93.89
2019-03-05T04:08:05.483Z,93.94
2019-03-05T04:09:05.467Z,93.84
2019-03-05T04:10:05.453Z,93.75
2019-03-05T04:11:05.450Z,94.13
2019-03-05T04:12:05.436Z,93.94
2019-03-05T04:13:05.428Z,93.46
2019-03-05T04:14:05.425Z,93.41
2019-03-05T04:15:05.407Z,94.13
2019-03-05T04:16:05.397Z,93.99
2019-03-05T04:17:05.392Z,93.79
2019-03-05T04:18:05.383Z,94.08
2019-03-05T04:19:05.362Z,94.08
2019-03-05T04:20:05.348Z,93.75
2019-03-05T04:21:05.338Z,93.70
2019-03-05T04:22:05.334Z,94.23
2019-03-05T04:23:05.322Z,94.03
2019-03-05T04:24:05.306Z,94.18
2019-03-05T04:25:05.302Z,93.37
2019-03-05T04:26:05.291Z,93.75
2019-03-05T04:27:05.288Z,94.08
2019-03-05T04:28:05.272Z,94.13
2019-03-05T04:29:05.263Z,93.84
2019-03-05T04:30:05.249Z,93.94
2019-03-05T04:31:05.236Z,94.03
2019-03-05T04:32:05.228Z,93.84
2019-03-05T04:33:05.219Z,94.13
2019-03-05T04:34:05.203Z,93.65
2019-03-05T04:35:05.192Z,94.42
2019-03-05T04:36:05.187Z,94.60
2019-03-05T04:37:05.176Z,94.51
2019-03-05T04:38:05.170Z,95.08
2019-03-05T04:39:05.157Z,94.60
2019-03-05T04:40:05.143Z,94.42
2019-03-05T04:41:05.133Z,95.08
2019-03-05T04:42:05.126Z,94.60
2019-03-05T04:43:05.117Z,94.51
2019-03-05T04:44:05.105Z,94.89
2019-03-05T04:45:05.093Z,94.23
2019-03-05T04:46:05.082Z,94.23
2019-03-05T04:47:05.067Z,94.42
2019-03-05T04:48:05.059Z,94.98
2019-03-05T04:49:05.046Z,94.70
2019-03-05T04:50:05.043Z,94.60
2019-03-05T04:51:05.031Z,94.32
2019-03-05T04:52:05.022Z,94.60
2019-03-05T04:53:05.013Z,95.08
2019-03-05T04:54:04.998Z,95.17
2019-03-05T04:55:04.988Z,94.42
2019-03-05T04:56:04.980Z,94.42
2019-03-05T04:57:04.977Z,94.42
2019-03-05T04:58:04.956Z,95.08
2019-03-05T04:59:04.945Z,94.42
2019-03-05T05:00:04.931Z,94.23
2019-03-05T05:01:04.924Z,95.08
2019-03-05T05:02:04.919Z,95.08
2019-03-05T05:03:04.907Z,94.60
2019-03-05T05:04:04.894Z,94.51
2019-03-05T05:05:04.885Z,94.51
2019-03-05T05:06:04.870Z,94.46
2019-03-05T05:07:04.860Z,95.08
2019-03-05T05:08:04.851Z,94.42
2019-03-05T05:09:04.840Z,95.08
2019-03-05T05:10:04.835Z,94.23
2019-03-05T05:11:04.825Z,94.56
2019-03-05T05:12:04.810Z,94.65
2019-03-05T05:13:04.799Z,93.70
2019-03-05T05:14:04.793Z,93.70
2019-03-05T05:15:04.780Z,93.99
2019-03-05T05:16:04.769Z,94.08
2019-03-05T05:17:04.763Z,93.89
2019-03-05T05:18:04.744Z,94.18
2019-03-05T05:19:04.738Z,94.27
2019-03-05T05:20:04.722Z,94.08
2019-03-05T05:21:04.713Z,94.08
2019-03-05T05:22:04.707Z,94.18
2019-03-05T05:23:04.696Z,93.79
2019-03-05T05:24:04.689Z,93.32
2019-03-05T05:25:04.677Z,93.51
2019-03-05T05:26:04.664Z,93.51
2019-03-05T05:27:04.651Z,93.51
2019-03-05T05:28:04.646Z,93.32
2019-03-05T05:29:04.638Z,93.41
2019-03-05T05:30:04.621Z,93.41
2019-03-05T05:31:04.615Z,92.85
2019-03-05T05:32:04.599Z,93.32
2019-03-05T05:33:04.588Z,93.70
2019-03-05T05:34:04.584Z,93.23
2019-03-05T05:35:04.570Z,93.13
2019-03-05T05:36:04.564Z,93.23
2019-03-05T05:37:04.555Z,93.41
2019-03-05T05:38:04.552Z,93.13
2019-03-05T05:39:04.529Z,93.13
2019-03-05T05:40:04.925Z,92.94
2019-03-05T05:41:04.508Z,93.32
2019-03-05T05:42:04.503Z,93.04
2019-03-05T05:43:04.489Z,93.13
2019-03-05T05:44:04.474Z,93.32
2019-03-05T05:45:04.466Z,93.04
2019-03-05T05:46:04.459Z,92.94
2019-03-05T05:47:04.448Z,93.13
2019-03-05T05:48:04.440Z,92.85
2019-03-05T05:49:04.433Z,93.41
2019-03-05T05:50:04.417Z,93.13
2019-03-05T05:51:04.408Z,92.85
2019-03-05T05:52:04.396Z,92.85
2019-03-05T05:53:04.387Z,93.32
2019-03-05T05:54:04.380Z,93.23
2019-03-05T05:55:04.369Z,93.23
2019-03-05T05:56:04.355Z,92.94
2019-03-05T05:57:04.348Z,93.23
2019-03-05T05:58:04.344Z,93.60
2019-03-05T05:59:04.321Z,92.94
2019-03-05T06:00:04.316Z,93.70
2019-03-05T06:01:04.306Z,93.41
2019-03-05T06:02:04.291Z,94.08
2019-03-05T06:03:04.279Z,93.99
2019-03-05T06:04:04.272Z,93.99
2019-03-05T06:05:04.263Z,93.99
2019-03-05T06:06:04.261Z,93.51
2019-03-05T06:07:04.246Z,93.32
2019-03-05T06:08:04.239Z,93.99
2019-03-05T06:09:04.229Z,94.08
2019-03-05T06:10:04.213Z,94.08
2019-03-05T06:11:04.200Z,94.46
2019-03-05T06:12:04.189Z,93.70
2019-03-05T06:13:04.178Z,94.18
2019-03-05T06:14:04.178Z,94.46
2019-03-05T06:15:04.165Z,94.56
2019-03-05T06:16:04.149Z,94.37
2019-03-05T06:17:04.140Z,94.74
2019-03-05T06:18:04.134Z,94.46
2019-03-05T06:19:04.122Z,95.03
2019-03-05T06:20:04.114Z,94.46
2019-03-05T06:21:04.106Z,94.37
2019-03-05T06:22:04.092Z,95.12
2019-03-05T06:23:04.092Z,94.56
2019-03-05T06:24:04.068Z,94.65
2019-03-05T06:25:04.067Z,94.84
2019-03-05T06:26:04.055Z,94.46
2019-03-05T06:27:04.043Z,95.12
2019-03-05T06:28:04.034Z,94.84
2019-03-05T06:29:04.019Z,95.03
2019-03-05T06:30:04.005Z,95.51
2019-03-05T06:31:04.029Z,95.03
2019-03-05T06:32:03.990Z,94.93
2019-03-05T06:33:03.984Z,95.08
2019-03-05T06:34:03.978Z,94.74
2019-03-05T06:35:03.954Z,95.08
2019-03-05T06:36:03.948Z,95.27
2019-03-05T06:37:03.937Z,94.98
2019-03-05T06:38:03.931Z,95.27
2019-03-05T06:39:03.920Z,95.65
2019-03-05T06:40:03.911Z,95.41
2019-03-05T06:41:03.897Z,95.84
2019-03-05T06:42:03.883Z,95.94
2019-03-05T06:43:03.871Z,95.46
2019-03-05T06:44:03.865Z,95.65
2019-03-05T06:45:03.856Z,95.65
2019-03-05T06:46:03.854Z,95.41
2019-03-05T06:47:03.839Z,95.51
2019-03-05T06:48:03.826Z,95.89
2019-03-05T06:49:03.816Z,95.70
2019-03-05T06:50:03.810Z,95.60
2019-03-05T06:51:03.797Z,95.60
2019-03-05T06:52:03.786Z,95.51
2019-03-05T06:53:03.785Z,95.94
2019-03-05T06:54:03.763Z,95.41
2019-03-05T06:55:03.754Z,95.51
2019-03-05T06:56:03.740Z,95.98
2019-03-05T06:57:03.732Z,95.46
2019-03-05T06:58:03.727Z,95.17
2019-03-05T06:59:03.714Z,95.65
2019-03-05T07:00:03.708Z,96.22
2019-03-05T07:01:03.696Z,96.12
2019-03-05T07:02:03.682Z,96.22
2019-03-05T07:03:03.698Z,96.69
2019-03-05T07:04:03.665Z,96.69
2019-03-05T07:05:03.655Z,96.88
2019-03-05T07:06:03.643Z,97.27
2019-03-05T07:07:03.632Z,97.83
2019-03-05T07:08:03.618Z,98.02
2019-03-05T07:09:03.606Z,98.21
2019-03-05T07:10:03.606Z,98.31
2019-03-05T07:11:03.591Z,98.97
2019-03-05T07:12:03.581Z,98.88
2019-03-05T07:13:03.572Z,98.97
2019-03-05T07:14:03.556Z,98.69
2019-03-05T07:15:03.545Z,99.26
2019-03-05T07:16:03.538Z,99.35
2019-03-05T07:17:03.528Z,99.26
2019-03-05T07:18:03.523Z,99.26
2019-03-05T07:19:03.510Z,99.35
2019-03-05T07:20:03.498Z,99.26
2019-03-05T07:21:03.487Z,99.26
2019-03-05T07:22:03.480Z,99.54
2019-03-05T07:23:03.469Z,99.26
2019-03-05T07:24:03.458Z,99.92
2019-03-05T07:25:03.446Z,99.54
2019-03-05T07:26:03.432Z,99.68
2019-03-05T07:27:03.422Z,99.83
2019-03-05T07:28:03.410Z,99.99
2019-03-05T07:29:03.401Z,99.64
2019-03-05T07:30:03.396Z,99.83
2019-03-05T07:31:03.384Z,99.83
2019-03-05T07:32:03.376Z,99.92
2019-03-05T07:33:03.367Z,99.64
2019-03-05T07:34:03.354Z,99.73
2019-03-05T07:35:03.341Z,99.30
2019-03-05T07:36:03.335Z,99.11
2019-03-05T07:37:03.325Z,99.40
2019-03-05T07:38:03.311Z,99.44
2019-03-05T07:39:03.298Z,99.64
2019-03-05T07:40:03.288Z,99.92
2019-03-05T07:41:03.285Z,99.16
2019-03-05T07:42:03.282Z,99.16
2019-03-05T07:43:03.260Z,99.44
2019-03-05T07:44:03.256Z,99.16
2019-03-05T07:45:03.241Z,99.16
2019-03-05T07:46:03.238Z,99.64
2019-03-05T07:47:03.225Z,99.35
2019-03-05T07:48:03.208Z,99.07
2019-03-05T07:49:03.196Z,99.83
2019-03-05T07:50:03.189Z,99.73
2019-03-05T07:51:03.181Z,99.92
2019-03-05T07:52:03.167Z,99.54
2019-03-05T07:53:03.153Z,98.97
2019-03-05T07:54:03.151Z,99.73
2019-03-05T07:55:13.165Z,99.73
2019-03-05T07:56:03.133Z,99.92
2019-03-05T07:57:03.121Z,99.35
2019-03-05T07:58:03.103Z,99.44
2019-03-05T07:59:03.095Z,99.26
2019-03-05T08:00:05.359Z,99.26
2019-03-05T08:01:03.074Z,98.79
2019-03-05T08:02:03.069Z,98.88
2019-03-05T08:03:03.059Z,98.79
2019-03-05T08:04:03.045Z,99.44
2019-03-05T08:05:03.035Z,98.97
2019-03-05T08:06:03.021Z,98.79
2019-03-05T08:07:03.009Z,98.59
2019-03-05T08:08:03.004Z,98.97
2019-03-05T08:09:02.996Z,99.16
2019-03-05T08:10:02.980Z,99.44
2019-03-05T08:11:02.971Z,99.35
2019-03-05T08:12:02.966Z,99.44
2019-03-05T08:13:02.953Z,99.64
2019-03-05T08:14:02.949Z,99.54
2019-03-05T08:15:02.936Z,99.26
2019-03-05T08:16:02.968Z,99.35
2019-03-05T08:17:02.917Z,99.35
2019-03-05T08:18:02.900Z,99.16
2019-03-05T08:19:02.893Z,98.59
2019-03-05T08:20:02.881Z,99.16
2019-03-05T08:21:02.870Z,98.79
2019-03-05T08:22:02.863Z,98.79
2019-03-05T08:23:02.853Z,98.79
2019-03-05T08:24:02.839Z,98.88
2019-03-05T08:25:02.830Z,98.79
2019-03-05T08:26:02.822Z,98.88
2019-03-05T08:27:02.815Z,99.07
2019-03-05T08:28:02.804Z,98.59
2019-03-05T08:29:03.168Z,98.97
2019-03-05T08:30:13.500Z,98.59
2019-03-05T08:31:02.769Z,98.02
2019-03-05T08:32:02.759Z,98.12
2019-03-05T08:33:02.751Z,98.21
2019-03-05T08:34:02.746Z,98.50
2019-03-05T08:35:02.733Z,97.97
2019-03-05T08:36:02.723Z,97.83
2019-03-05T08:37:02.711Z,97.83
2019-03-05T08:38:02.698Z,97.97
2019-03-05T08:39:02.686Z,97.50
2019-03-05T08:40:02.683Z,98.02
2019-03-05T08:41:02.671Z,98.12
2019-03-05T08:42:02.659Z,98.12
2019-03-05T08:43:02.645Z,97.78
2019-03-05T08:44:02.639Z,97.97
2019-03-05T08:45:02.631Z,98.07
2019-03-05T08:46:02.624Z,97.31
2019-03-05T08:47:02.613Z,97.17
2019-03-05T08:48:02.605Z,97.60
2019-03-05T08:49:02.596Z,97.50
2019-03-05T08:50:02.581Z,97.31
2019-03-05T08:51:02.569Z,97.50
2019-03-05T08:52:02.556Z,97.31
2019-03-05T08:53:02.549Z,97.50
2019-03-05T08:54:02.546Z,97.50
2019-03-05T08:55:02.534Z,97.22
2019-03-05T08:56:02.518Z,96.93
2019-03-05T08:57:02.509Z,97.03
2019-03-05T08:58:02.507Z,97.12
2019-03-05T08:59:02.494Z,97.22
2019-03-05T09:00:02.486Z,96.93
2019-03-05T09:01:02.483Z,97.12
2019-03-05T09:02:02.462Z,97.03
2019-03-05T09:03:02.452Z,96.36
2019-03-05T09:04:02.441Z,96.36
2019-03-05T09:05:02.433Z,96.36
2019-03-05T09:06:02.427Z,96.84
2019-03-05T09:07:02.417Z,96.36
2019-03-05T09:08:02.408Z,96.79
2019-03-05T09:09:02.395Z,96.41
2019-03-05T09:10:02.386Z,96.12
2019-03-05T09:11:02.369Z,96.60
2019-03-05T09:12:02.367Z,96.22
2019-03-05T09:13:02.360Z,96.41
2019-03-05T09:14:02.342Z,96.03
2019-03-05T09:15:02.334Z,96.41
2019-03-05T09:16:02.328Z,96.31
2019-03-05T09:17:02.320Z,96.69
2019-03-05T09:18:02.315Z,96.41
2019-03-05T09:19:02.308Z,96.50
2019-03-05T09:20:02.292Z,96.50
2019-03-05T09:21:02.286Z,96.50
2019-03-05T09:22:02.271Z,95.46
2019-03-05T09:23:02.260Z,95.75
2019-03-05T09:24:02.255Z,95.27
2019-03-05T09:25:02.239Z,95.46
2019-03-05T09:26:02.236Z,95.46
2019-03-05T09:27:02.229Z,95.27
2019-03-05T09:28:02.212Z,95.51
2019-03-05T09:29:02.205Z,95.22
2019-03-05T09:30:02.200Z,95.32
2019-03-05T09:31:02.190Z,95.51
2019-03-05T09:32:02.185Z,95.03
2019-03-05T09:33:02.173Z,94.84
2019-03-05T09:34:02.162Z,95.22
2019-03-05T09:35:02.151Z,95.32
2019-03-05T09:36:02.143Z,95.12
2019-03-05T09:37:02.134Z,95.12
2019-03-05T09:38:02.130Z,94.65
2019-03-05T09:39:03.188Z,94.93
2019-03-05T09:40:02.108Z,94.56
2019-03-05T09:41:02.101Z,94.27
2019-03-05T09:42:02.158Z,94.46
2019-03-05T09:43:02.078Z,94.37
2019-03-05T09:44:02.075Z,94.37
2019-03-05T09:45:02.067Z,93.79
2019-03-05T09:46:02.052Z,94.08
2019-03-05T09:47:02.043Z,93.98
2019-03-05T09:48:02.037Z,94.18
2019-03-05T09:49:02.029Z,94.27
2019-03-05T09:50:02.025Z,93.79
2019-03-05T09:51:02.017Z,94.03
2019-03-05T09:52:02.004Z,94.32
2019-03-05T09:53:01.997Z,94.89
2019-03-05T09:54:01.982Z,93.84
2019-03-05T09:55:01.973Z,94.60
2019-03-05T09:56:01.967Z,93.74
2019-03-05T09:57:01.959Z,93.46
2019-03-05T09:58:08.027Z,93.37
2019-03-05T09:59:01.946Z,92.99
2019-03-05T10:00:01.932Z,92.70
2019-03-05T10:01:01.924Z,92.99
2019-03-05T10:02:01.920Z,92.32
2019-03-05T10:03:01.911Z,92.60
2019-03-05T10:04:01.902Z,92.41
2019-03-05T10:05:01.893Z,93.18
2019-03-05T10:06:01.879Z,92.89
2019-03-05T10:07:01.870Z,93.74
2019-03-05T10:08:01.864Z,93.27
2019-03-05T10:09:01.856Z,93.37
2019-03-05T10:10:01.853Z,93.65
2019-03-05T10:11:01.843Z,93.65
2019-03-05T10:12:01.837Z,93.27
2019-03-05T10:13:04.358Z,93.18
2019-03-05T10:14:01.816Z,92.99
2019-03-05T10:15:01.807Z,92.89
2019-03-05T10:16:01.805Z,93.08
2019-03-05T10:17:01.795Z,93.55
2019-03-05T10:18:12.280Z,92.70
2019-03-05T10:19:01.774Z,92.51
2019-03-05T10:20:01.764Z,92.51
2019-03-05T10:21:01.754Z,92.32
2019-03-05T10:22:01.753Z,92.36
2019-03-05T10:23:01.746Z,92.55
2019-03-05T10:24:09.998Z,91.89
2019-03-05T10:25:05.804Z,91.94
2019-03-05T10:26:01.715Z,92.13
2019-03-05T10:27:01.706Z,92.27
2019-03-05T10:28:01.763Z,91.79
2019-03-05T10:29:01.692Z,92.36
2019-03-05T10:30:01.690Z,91.89
2019-03-05T10:31:01.680Z,91.51
2019-03-05T10:32:01.667Z,91.79
2019-03-05T10:33:01.661Z,91.89
2019-03-05T10:34:01.655Z,91.79
2019-03-05T10:35:01.648Z,91.79
2019-03-05T10:36:01.639Z,91.22
2019-03-05T10:37:12.101Z,91.22
2019-03-05T10:38:01.617Z,91.22
2019-03-05T10:39:01.608Z,91.03
2019-03-05T10:40:01.602Z,90.08
2019-03-05T10:41:01.595Z,89.98
2019-03-05T10:42:01.592Z,89.79
2019-03-05T10:43:08.296Z,89.79
2019-03-05T10:44:01.576Z,89.51
2019-03-05T10:45:01.569Z,89.98
2019-03-05T10:46:01.557Z,89.61
2019-03-05T10:47:01.550Z,89.41
2019-03-05T10:48:01.547Z,89.32
2019-03-05T10:49:01.538Z,89.46
2019-03-05T10:50:01.527Z,88.89
2019-03-05T10:51:01.518Z,88.51
2019-03-05T10:52:01.509Z,88.17
2019-03-05T10:53:01.502Z,88.45
2019-03-05T10:54:02.306Z,87.88
2019-03-05T10:55:01.663Z,86.78
2019-03-05T10:56:01.485Z,85.97
2019-03-05T10:57:01.478Z,85.45
2019-03-05T10:58:01.466Z,84.49
2019-03-05T10:59:01.459Z,84.30
2019-03-05T11:00:01.450Z,83.97
2019-03-05T11:01:01.446Z,83.88
2019-03-05T11:02:01.441Z,84.16
2019-03-05T11:03:01.438Z,84.83
2019-03-05T11:04:01.421Z,84.83
2019-03-05T11:05:01.418Z,85.45
2019-03-05T11:06:01.414Z,85.25
2019-03-05T11:07:01.408Z,84.59
2019-03-05T11:08:01.406Z,84.40
2019-03-05T11:09:01.395Z,83.73
2019-03-05T11:10:01.386Z,84.40
2019-03-05T11:11:12.656Z,83.64
2019-03-05T11:12:01.375Z,83.44
2019-03-05T11:13:01.365Z,83.39
2019-03-05T11:14:01.364Z,83.48
2019-03-05T11:15:01.357Z,82.34
2019-03-05T11:16:01.348Z,81.92
2019-03-05T11:17:01.346Z,81.24
2019-03-05T11:18:01.332Z,80.24
2019-03-05T11:19:01.327Z,80.47
2019-03-05T11:20:01.335Z,79.77
2019-03-05T11:21:01.317Z,79.77
2019-03-05T11:22:01.310Z,80.15
2019-03-05T11:23:01.302Z,79.71
2019-03-05T11:24:01.300Z,79.99
2019-03-05T11:25:01.300Z,79.61
2019-03-05T11:26:01.296Z,80.05
2019-03-05T11:27:01.288Z,79.57
2019-03-05T11:28:01.283Z,79.52
2019-03-05T11:29:01.277Z,79.67
2019-03-05T11:30:01.269Z,79.99
2019-03-05T11:31:01.266Z,78.94
2019-03-05T11:32:01.253Z,79.10
2019-03-05T11:33:01.249Z,78.81
2019-03-05T11:34:01.250Z,78.72
2019-03-05T11:35:01.242Z,79.86
2019-03-05T11:36:01.232Z,79.86
2019-03-05T11:37:01.226Z,80.24
2019-03-05T11:38:01.226Z,80.15
2019-03-05T11:39:01.220Z,80.49
2019-03-05T11:40:01.217Z,80.39
2019-03-05T11:41:01.219Z,80.39
2019-03-05T11:42:01.215Z,80.58
2019-03-05T11:43:01.196Z,80.96
2019-03-05T11:44:01.194Z,81.10
2019-03-05T11:45:07.559Z,81.67
2019-03-05T11:46:01.185Z,82.15
2019-03-05T11:47:01.179Z,82.15
2019-03-05T11:48:01.172Z,82.24
2019-03-05T11:49:01.164Z,82.53
2019-03-05T11:50:01.159Z,81.67
2019-03-05T11:51:01.150Z,81.06
2019-03-05T11:52:01.147Z,81.54
2019-03-05T11:53:01.146Z,82.01
2019-03-05T11:54:01.130Z,82.30
2019-03-05T11:55:01.136Z,82.30
2019-03-05T11:56:01.121Z,82.68
2019-03-05T11:57:01.694Z,82.49
2019-03-05T11:58:01.168Z,82.59
2019-03-05T11:59:01.108Z,82.78
2019-03-05T12:00:01.099Z,82.49
2019-03-05T12:01:01.094Z,82.59
2019-03-05T12:02:01.085Z,82.59
2019-03-05T12:03:01.082Z,82.01
2019-03-05T12:04:01.071Z,82.59
2019-03-05T12:05:01.066Z,82.01
2019-03-05T12:06:01.070Z,82.49
2019-03-05T12:07:01.054Z,82.30
2019-03-05T12:08:01.044Z,82.49
2019-03-05T12:09:01.042Z,82.63
2019-03-05T12:10:01.036Z,83.01
2019-03-05T12:11:01.030Z,82.63
2019-03-05T12:12:01.020Z,83.11
2019-03-05T12:13:01.014Z,83.43
2019-03-05T12:14:01.054Z,82.57
2019-03-05T12:15:00.994Z,81.90
2019-03-05T12:16:00.990Z,81.24
2019-03-05T12:17:00.982Z,80.28
2019-03-05T12:18:00.982Z,79.90
2019-03-05T12:19:00.974Z,80.47
2019-03-05T12:20:00.975Z,80.28
2019-03-05T12:21:00.966Z,80.28
2019-03-05T12:22:00.954Z,79.56
2019-03-05T12:23:02.344Z,80.04
2019-03-05T12:24:00.947Z,80.07
2019-03-05T12:25:01.840Z,79.60
2019-03-05T12:26:00.929Z,79.02
2019-03-05T12:27:00.923Z,78.45
2019-03-05T12:28:09.866Z,76.73
2019-03-05T12:29:00.908Z,76.31
2019-03-05T12:30:00.909Z,76.31
2019-03-05T12:31:00.901Z,75.74
2019-03-05T12:32:00.895Z,76.60
2019-03-05T12:33:00.889Z,76.79
2019-03-05T12:34:00.882Z,76.79
2019-03-05T12:35:00.873Z,77.21
2019-03-05T12:36:00.869Z,77.59
2019-03-05T12:37:00.870Z,78.36
2019-03-05T12:38:00.864Z,78.64
2019-03-05T12:39:00.861Z,78.93
2019-03-05T12:40:00.849Z,78.55
2019-03-05T12:41:00.843Z,78.07
2019-03-05T12:42:03.446Z,78.07
2019-03-05T12:43:00.836Z,77.87
2019-03-05T12:44:00.832Z,77.69
2019-03-05T12:45:00.825Z,78.60
2019-03-05T12:46:00.813Z,78.79
2019-03-05T12:47:00.809Z,78.83
2019-03-05T12:48:00.812Z,80.17
2019-03-05T12:49:00.799Z,78.83
2019-03-05T12:50:00.798Z,79.88
2019-03-05T12:51:00.795Z,79.22
2019-03-05T12:52:00.791Z,78.83